createdAt,value
2023-05-14T00:00:14.982Z,240.82
2023-05-14T00:01:00.636Z,213.84
2023-05-14T00:01:44.804Z,170.87
2023-05-14T00:02:30.261Z,203.88
2023-05-14T00:03:15.693Z,179.89
2023-05-14T00:04:00.702Z,280.83
2023-05-14T00:04:45.353Z,198.88
2023-05-14T00:05:30.569Z,332.80
2023-05-14T00:06:15.248Z,342.79
2023-05-14T00:07:00.665Z,540.67
2023-05-14T00:07:45.728Z,587.64
2023-05-14T00:08:30.894Z,640.61
2023-05-14T00:09:15.736Z,640.61
2023-05-14T00:10:00.585Z,412.75
2023-05-14T00:10:45.943Z,426.62
2023-05-14T00:11:31.109Z,378.77
2023-05-14T00:12:15.848Z,374.67
2023-05-14T00:13:00.805Z,320.80
2023-05-14T00:13:46.069Z,336.70
2023-05-14T00:14:31.133Z,280.83
2023-05-14T00:15:16.189Z,246.85
2023-05-14T00:16:01.294Z,274.83
2023-05-14T00:16:46.291Z,280.83
2023-05-14T00:17:31.396Z,259.84
2023-05-14T00:18:16.309Z,244.85
2023-05-14T00:19:01.289Z,355.69
2023-05-14T00:19:46.310Z,251.85
2023-05-14T00:20:31.581Z,380.77
2023-05-14T00:21:16.873Z,339.79
2023-05-14T00:22:01.899Z,342.70
2023-05-14T00:22:47.734Z,289.85
2023-05-14T00:23:31.515Z,288.85
2023-05-14T00:24:16.936Z,223.89
2023-05-14T00:25:02.062Z,272.86
2023-05-14T00:25:46.873Z,243.88
2023-05-14T00:26:31.721Z,573.71
2023-05-14T00:27:16.836Z,435.78
2023-05-14T00:28:02.157Z,384.80
2023-05-14T00:28:47.303Z,413.79
2023-05-14T00:29:31.953Z,413.79
2023-05-14T00:30:17.004Z,380.81
2023-05-14T00:31:02.074Z,346.74
2023-05-14T00:31:47.274Z,362.82
2023-05-14T00:32:32.642Z,332.83
2023-05-14T00:33:17.710Z,265.87
2023-05-14T00:34:02.390Z,305.84
2023-05-14T00:34:47.619Z,308.84
2023-05-14T00:35:32.812Z,336.83
2023-05-14T00:36:17.665Z,270.86
2023-05-14T00:37:02.616Z,283.86
2023-05-14T00:37:47.837Z,263.81
2023-05-14T00:38:32.945Z,406.79
2023-05-14T00:39:17.852Z,439.78
2023-05-14T00:40:02.656Z,465.76
2023-05-14T00:40:47.782Z,383.81
2023-05-14T00:41:32.857Z,393.80
2023-05-14T00:42:17.811Z,381.81
2023-05-14T00:43:02.968Z,418.69
2023-05-14T00:43:47.935Z,339.83
2023-05-14T00:44:33.290Z,332.75
2023-05-14T00:45:18.372Z,358.82
2023-05-14T00:46:03.193Z,352.82
2023-05-14T00:46:48.484Z,319.80
2023-05-14T00:47:33.575Z,446.77
2023-05-14T00:48:17.923Z,350.74
2023-05-14T00:49:03.517Z,359.82
2023-05-14T00:49:48.686Z,359.82
2023-05-14T00:50:33.579Z,340.83
2023-05-14T00:51:18.483Z,340.83
2023-05-14T00:52:03.849Z,308.81
2023-05-14T00:52:48.877Z,287.79
2023-05-14T00:53:33.753Z,309.77
2023-05-14T00:54:18.671Z,278.75
2023-05-14T00:55:04.001Z,296.78
2023-05-14T00:55:48.622Z,296.78
2023-05-14T00:56:34.021Z,343.75
2023-05-14T00:57:19.155Z,348.74
2023-05-14T00:58:04.097Z,450.43
2023-05-14T00:58:49.050Z,495.56
2023-05-14T00:59:34.352Z,529.53
2023-05-14T01:00:19.313Z,423.63
2023-05-14T01:01:04.402Z,342.75
2023-05-14T01:01:49.379Z,411.70
2023-05-14T01:02:34.987Z,260.81
2023-05-14T01:03:19.378Z,275.65
2023-05-14T01:04:04.620Z,263.81
2023-05-14T01:04:49.681Z,211.84
2023-05-14T01:05:34.663Z,365.73
2023-05-14T01:06:19.636Z,365.73
2023-05-14T01:07:04.877Z,374.81
2023-05-14T01:07:49.969Z,353.69
2023-05-14T01:08:34.813Z,313.81
2023-05-14T01:09:19.943Z,270.80
2023-05-14T01:10:05.005Z,318.76
2023-05-14T01:10:49.902Z,495.63
2023-05-14T01:11:35.187Z,364.68
2023-05-14T01:12:20.162Z,282.79
2023-05-14T01:13:05.133Z,282.79
2023-05-14T01:13:50.503Z,259.81
2023-05-14T01:14:35.145Z,230.83
2023-05-14T01:15:20.395Z,216.87
2023-05-14T01:16:05.287Z,261.84
2023-05-14T01:16:51.081Z,231.86
2023-05-14T01:17:36.007Z,261.84
2023-05-14T01:18:20.578Z,261.84
2023-05-14T01:19:05.651Z,305.73
2023-05-14T01:19:51.168Z,168.79
2023-05-14T01:20:35.833Z,156.86
2023-05-14T01:21:21.249Z,156.88
2023-05-14T01:22:05.603Z,217.84
2023-05-14T01:22:50.780Z,160.90
2023-05-14T01:23:36.652Z,227.86
2023-05-14T01:24:20.837Z,150.89
2023-05-14T01:25:05.916Z,156.88
2023-05-14T01:25:51.123Z,139.90
2023-05-14T01:26:36.470Z,168.88
2023-05-14T01:27:20.761Z,168.88
2023-05-14T01:28:06.411Z,127.91
2023-05-14T01:28:51.541Z,127.91
2023-05-14T01:29:36.473Z,113.92
2023-05-14T01:30:21.669Z,118.91
2023-05-14T01:31:06.479Z,176.87
2023-05-14T01:31:51.878Z,189.80
2023-05-14T01:32:36.590Z,114.92
2023-05-14T01:33:21.762Z,139.88
2023-05-14T01:34:06.829Z,107.90
2023-05-14T01:34:51.830Z,147.87
2023-05-14T01:35:36.849Z,147.87
2023-05-14T01:36:22.227Z,130.86
2023-05-14T01:37:07.059Z,130.88
2023-05-14T01:37:52.464Z,158.86
2023-05-14T01:38:37.162Z,163.83
2023-05-14T01:39:22.284Z,136.86
2023-05-14T01:40:07.386Z,128.86
2023-05-14T01:40:52.340Z,136.86
2023-05-14T01:41:37.414Z,133.86
2023-05-14T01:42:22.274Z,141.85
2023-05-14T01:43:07.877Z,130.86
2023-05-14T01:43:52.752Z,107.84
2023-05-14T01:44:37.616Z,150.84
2023-05-14T01:45:22.548Z,90.90
2023-05-14T01:46:07.486Z,102.91
2023-05-14T01:46:52.655Z,78.93
2023-05-14T01:47:38.379Z,76.93
2023-05-14T01:48:22.931Z,101.92
2023-05-14T01:49:07.955Z,90.90
2023-05-14T01:49:52.986Z,111.93
2023-05-14T01:50:38.053Z,111.90
2023-05-14T01:51:23.101Z,76.96
2023-05-14T01:52:08.082Z,70.96
2023-05-14T01:52:53.339Z,102.95
2023-05-14T01:53:38.166Z,93.94
2023-05-14T01:54:23.351Z,116.93
2023-05-14T01:55:08.335Z,209.85
2023-05-14T01:55:53.674Z,116.88
2023-05-14T01:56:38.286Z,80.94
2023-05-14T01:57:23.236Z,101.92
2023-05-14T01:58:08.595Z,101.92
2023-05-14T01:58:54.492Z,127.91
2023-05-14T01:59:37.968Z,182.89
2023-05-14T02:00:23.626Z,152.92
2023-05-14T02:01:08.899Z,81.96
2023-05-14T02:01:54.028Z,80.96
2023-05-14T02:02:38.910Z,57.97
2023-05-14T02:03:23.916Z,50.97
2023-05-14T02:04:09.176Z,45.98
2023-05-14T02:04:54.287Z,48.97
2023-05-14T02:05:39.169Z,26.98
2023-05-14T02:06:23.986Z,41.97
2023-05-14T02:07:08.974Z,41.97
2023-05-14T02:07:54.136Z,38.97
2023-05-14T02:08:39.198Z,32.97
2023-05-14T02:09:24.347Z,32.98
2023-05-14T02:10:09.621Z,33.98
2023-05-14T02:10:54.678Z,35.98
2023-05-14T02:11:39.394Z,20.99
2023-05-14T02:12:24.322Z,39.98
2023-05-14T02:13:09.613Z,41.98
2023-05-14T02:13:54.902Z,37.98
2023-05-14T02:14:39.743Z,29.98
2023-05-14T02:15:24.608Z,29.98
2023-05-14T02:16:09.696Z,39.98
2023-05-14T02:16:56.045Z,34.98
2023-05-14T02:17:39.910Z,43.98
2023-05-14T02:18:24.974Z,26.99
2023-05-14T02:19:10.578Z,65.95
2023-05-14T02:19:55.151Z,64.97
2023-05-14T02:20:40.302Z,32.98
2023-05-14T02:21:25.282Z,34.98
2023-05-14T02:22:10.112Z,38.98
2023-05-14T02:22:55.213Z,38.98
2023-05-14T02:23:41.903Z,25.99
2023-05-14T02:24:25.282Z,33.98
2023-05-14T02:25:10.756Z,38.98
2023-05-14T02:25:55.697Z,37.98
2023-05-14T02:26:40.368Z,40.97
2023-05-14T02:27:25.361Z,30.98
2023-05-14T02:28:10.581Z,43.97
2023-05-14T02:28:55.481Z,22.99
2023-05-14T02:29:41.081Z,32.98
2023-05-14T02:30:25.973Z,30.98
2023-05-14T02:31:10.773Z,35.98
2023-05-14T02:31:55.715Z,36.98
2023-05-14T02:32:40.336Z,20.98
2023-05-14T02:33:25.684Z,23.97
2023-05-14T02:34:10.815Z,24.98
2023-05-14T02:34:55.887Z,18.99
2023-05-14T02:35:41.243Z,32.98
2023-05-14T02:36:25.974Z,30.98
2023-05-14T02:37:10.730Z,19.99
2023-05-14T02:37:55.928Z,31.98
2023-05-14T02:38:40.839Z,36.98
2023-05-14T02:39:26.159Z,68.97
2023-05-14T02:40:11.974Z,61.95
2023-05-14T02:40:56.316Z,44.98
2023-05-14T02:41:40.961Z,28.99
2023-05-14T02:42:26.201Z,44.98
2023-05-14T02:43:11.130Z,31.98
2023-05-14T02:43:56.828Z,31.98
2023-05-14T02:44:41.082Z,40.97
2023-05-14T02:45:26.606Z,40.97
2023-05-14T02:46:11.304Z,49.97
2023-05-14T02:46:56.959Z,33.97
2023-05-14T02:47:41.362Z,31.97
2023-05-14T02:48:26.693Z,38.97
2023-05-14T02:49:11.696Z,27.98
2023-05-14T02:49:57.097Z,34.98
2023-05-14T02:50:41.899Z,26.98
2023-05-14T02:51:26.871Z,26.98
2023-05-14T02:52:11.945Z,32.98
2023-05-14T02:52:56.930Z,27.99
2023-05-14T02:53:41.986Z,23.99
2023-05-14T02:54:26.923Z,27.99
2023-05-14T02:55:12.093Z,66.98
2023-05-14T02:55:57.703Z,50.98
2023-05-14T02:56:42.093Z,47.97
2023-05-14T02:57:27.866Z,48.98
2023-05-14T02:58:12.115Z,71.96
2023-05-14T02:58:57.516Z,44.99
2023-05-14T02:59:42.375Z,30.99
2023-05-14T03:00:27.453Z,41.99
2023-05-14T03:01:12.633Z,37.99
2023-05-14T03:01:57.872Z,24.99
2023-05-14T03:02:42.668Z,30.99
2023-05-14T03:03:27.692Z,43.98
2023-05-14T03:04:12.868Z,77.97
2023-05-14T03:04:57.865Z,45.99
2023-05-14T03:05:42.930Z,30.99
2023-05-14T03:06:27.930Z,30.99
2023-05-14T03:07:12.849Z,29.99
2023-05-14T03:07:57.972Z,21.99
2023-05-14T03:08:43.615Z,21.99
2023-05-14T03:09:28.160Z,40.99
2023-05-14T03:10:13.888Z,40.99
2023-05-14T03:10:58.294Z,34.99
2023-05-14T03:11:43.020Z,26.99
2023-05-14T03:12:28.178Z,30.99
2023-05-14T03:13:13.339Z,33.99
2023-05-14T03:13:58.187Z,59.98
2023-05-14T03:14:43.462Z,63.98
2023-05-14T03:15:28.523Z,42.99
2023-05-14T03:16:13.716Z,33.99
2023-05-14T03:16:58.660Z,27.99
2023-05-14T03:17:43.768Z,31.99
2023-05-14T03:18:28.995Z,49.98
2023-05-14T03:19:14.089Z,49.98
2023-05-14T03:19:58.748Z,32.99
2023-05-14T03:20:43.903Z,21.99
2023-05-14T03:21:28.923Z,36.99
2023-05-14T03:22:14.021Z,29.98
2023-05-14T03:22:59.094Z,40.99
2023-05-14T03:23:44.057Z,41.99
2023-05-14T03:24:29.534Z,35.99
2023-05-14T03:25:14.155Z,69.98
2023-05-14T03:25:59.345Z,69.98
2023-05-14T03:26:44.557Z,45.98
2023-05-14T03:27:29.558Z,45.98
2023-05-14T03:28:14.684Z,39.99
2023-05-14T03:29:00.545Z,49.98
2023-05-14T03:29:44.683Z,48.99
2023-05-14T03:30:29.672Z,41.99
2023-05-14T03:31:14.714Z,41.99
2023-05-14T03:31:59.599Z,76.97
2023-05-14T03:32:44.746Z,72.96
2023-05-14T03:33:29.735Z,54.97
2023-05-14T03:34:14.845Z,53.96
2023-05-14T03:34:59.792Z,55.98
2023-05-14T03:35:44.721Z,35.98
2023-05-14T03:36:30.190Z,47.98
2023-05-14T03:37:15.347Z,30.98
2023-05-14T03:38:00.116Z,38.99
2023-05-14T03:38:45.047Z,33.99
2023-05-14T03:39:30.379Z,33.99
2023-05-14T03:40:16.234Z,70.98
2023-05-14T03:41:00.394Z,50.99
2023-05-14T03:41:45.548Z,50.99
2023-05-14T03:42:30.487Z,64.97
2023-05-14T03:43:15.268Z,64.97
2023-05-14T03:44:00.573Z,47.98
2023-05-14T03:44:45.614Z,36.97
2023-05-14T03:45:31.307Z,40.98
2023-05-14T03:46:15.413Z,66.97
2023-05-14T03:47:01.225Z,53.97
2023-05-14T03:47:45.967Z,22.99
2023-05-14T03:48:31.166Z,27.99
2023-05-14T03:49:15.835Z,57.96
2023-05-14T03:50:01.724Z,54.94
2023-05-14T03:50:46.565Z,61.96
2023-05-14T03:51:30.823Z,62.96
2023-05-14T03:52:16.379Z,52.97
2023-05-14T03:53:01.582Z,53.97
2023-05-14T03:53:46.389Z,38.97
2023-05-14T03:54:31.240Z,54.97
2023-05-14T03:55:16.623Z,76.95
2023-05-14T03:56:01.412Z,49.96
2023-05-14T03:56:46.200Z,33.98
2023-05-14T03:57:31.684Z,33.98
2023-05-14T03:58:16.510Z,32.98
2023-05-14T03:59:01.857Z,32.98
2023-05-14T03:59:46.857Z,29.98
2023-05-14T04:00:31.791Z,32.98
2023-05-14T04:01:16.231Z,72.96
2023-05-14T04:02:01.803Z,40.98
2023-05-14T04:02:46.833Z,47.98
2023-05-14T04:03:32.067Z,44.97
2023-05-14T04:04:16.781Z,40.96
2023-05-14T04:05:01.927Z,50.97
2023-05-14T04:05:47.136Z,25.98
2023-05-14T04:06:31.935Z,30.98
2023-05-14T04:07:16.944Z,33.98
2023-05-14T04:08:02.354Z,30.97
2023-05-14T04:08:47.417Z,29.97
2023-05-14T04:09:32.575Z,63.96
2023-05-14T04:10:16.951Z,86.96
2023-05-14T04:11:02.582Z,105.95
2023-05-14T04:11:47.459Z,186.89
2023-05-14T04:12:32.290Z,90.94
2023-05-14T04:13:17.491Z,59.97
2023-05-14T04:14:02.504Z,57.96
2023-05-14T04:14:47.599Z,56.97
2023-05-14T04:15:32.717Z,44.97
2023-05-14T04:16:17.846Z,36.98
2023-05-14T04:17:03.046Z,42.98
2023-05-14T04:17:48.139Z,35.98
2023-05-14T04:18:32.994Z,31.98
2023-05-14T04:19:18.191Z,85.96
2023-05-14T04:20:02.957Z,39.98
2023-05-14T04:20:48.236Z,40.99
2023-05-14T04:21:33.067Z,75.97
2023-05-14T04:22:18.066Z,35.99
2023-05-14T04:23:03.179Z,31.99
2023-05-14T04:23:48.063Z,45.98
2023-05-14T04:24:33.302Z,22.99
2023-05-14T04:25:18.756Z,23.99
2023-05-14T04:26:03.619Z,35.99
2023-05-14T04:26:48.561Z,30.98
2023-05-14T04:27:33.514Z,27.99
2023-05-14T04:28:18.473Z,48.98
2023-05-14T04:29:03.703Z,27.99
2023-05-14T04:29:48.651Z,28.99
2023-05-14T04:30:33.848Z,17.99
2023-05-14T04:31:19.229Z,29.98
2023-05-14T04:32:03.914Z,13.99
2023-05-14T04:32:49.090Z,13.99
2023-05-14T04:33:33.921Z,14.99
2023-05-14T04:34:18.923Z,11.99
2023-05-14T04:35:04.189Z,22.99
2023-05-14T04:35:48.958Z,29.98
2023-05-14T04:36:34.199Z,24.99
2023-05-14T04:37:19.141Z,24.99
2023-05-14T04:38:04.445Z,40.98
2023-05-14T04:38:49.358Z,40.98
2023-05-14T04:39:34.426Z,36.98
2023-05-14T04:40:19.506Z,34.98
2023-05-14T04:41:04.392Z,46.98
2023-05-14T04:41:49.482Z,33.97
2023-05-14T04:42:35.306Z,40.98
2023-05-14T04:43:19.988Z,28.99
2023-05-14T04:44:04.919Z,38.98
2023-05-14T04:44:49.820Z,28.99
2023-05-14T04:45:34.964Z,28.99
2023-05-14T04:46:20.071Z,24.99
2023-05-14T04:47:05.741Z,34.98
2023-05-14T04:47:50.413Z,24.99
2023-05-14T04:48:35.506Z,23.99
2023-05-14T04:49:20.169Z,20.99
2023-05-14T04:50:05.531Z,26.99
2023-05-14T04:50:50.301Z,28.99
2023-05-14T04:51:35.137Z,24.99
2023-05-14T04:52:20.185Z,26.99
2023-05-14T04:53:05.569Z,31.98
2023-05-14T04:53:50.939Z,24.99
2023-05-14T04:54:35.604Z,24.99
2023-05-14T04:55:20.337Z,21.99
2023-05-14T04:56:05.345Z,26.99
2023-05-14T04:56:50.892Z,31.98
2023-05-14T04:57:35.677Z,28.99
2023-05-14T04:58:20.717Z,30.98
2023-05-14T04:59:05.610Z,30.98
2023-05-14T04:59:51.170Z,28.99
2023-05-14T05:00:35.994Z,24.99
2023-05-14T05:01:21.198Z,24.99
2023-05-14T05:02:06.029Z,30.98
2023-05-14T05:02:51.272Z,24.98
2023-05-14T05:03:36.577Z,34.98
2023-05-14T05:04:21.308Z,36.98
2023-05-14T05:05:06.345Z,31.98
2023-05-14T05:05:51.192Z,54.97
2023-05-14T05:06:36.184Z,30.98
2023-05-14T05:07:21.407Z,17.99
2023-05-14T05:08:06.569Z,34.98
2023-05-14T05:08:51.829Z,16.99
2023-05-14T05:09:36.733Z,18.99
2023-05-14T05:10:22.036Z,20.99
2023-05-14T05:11:07.007Z,18.98
2023-05-14T05:11:51.853Z,37.98
2023-05-14T05:12:37.222Z,54.97
2023-05-14T05:13:22.319Z,115.94
2023-05-14T05:14:07.413Z,137.92
2023-05-14T05:14:52.409Z,170.90
2023-05-14T05:15:37.467Z,348.79
2023-05-14T05:16:22.365Z,385.76
2023-05-14T05:17:07.140Z,403.75
2023-05-14T05:17:52.580Z,395.65
2023-05-14T05:18:37.765Z,390.76
2023-05-14T05:19:29.049Z,348.79
2023-05-14T05:20:07.580Z,364.78
2023-05-14T05:20:52.836Z,319.84
2023-05-14T05:21:37.484Z,360.73
2023-05-14T05:22:22.711Z,328.83
2023-05-14T05:23:07.603Z,332.80
2023-05-14T05:23:52.692Z,318.80
2023-05-14T05:24:37.505Z,316.81
2023-05-14T05:25:22.971Z,294.82
2023-05-14T05:26:08.158Z,300.82
2023-05-14T05:26:53.479Z,297.82
2023-05-14T05:27:38.034Z,285.82
2023-05-14T05:28:22.993Z,258.77
2023-05-14T05:29:08.079Z,290.85
2023-05-14T05:29:53.441Z,290.85
2023-05-14T05:30:38.552Z,247.87
2023-05-14T05:31:22.887Z,247.87
2023-05-14T05:32:08.292Z,229.88
2023-05-14T05:32:53.819Z,226.80
2023-05-14T05:33:38.523Z,210.89
2023-05-14T05:34:23.548Z,193.90
2023-05-14T05:35:08.739Z,203.90
2023-05-14T05:35:53.969Z,197.90
2023-05-14T05:36:38.354Z,228.83
2023-05-14T05:37:23.930Z,197.90
2023-05-14T05:38:08.532Z,190.90
2023-05-14T05:38:53.985Z,181.91
2023-05-14T05:39:38.755Z,192.90
2023-05-14T05:40:24.060Z,183.91
2023-05-14T05:41:08.847Z,176.91
2023-05-14T05:41:54.031Z,182.91
2023-05-14T05:42:38.862Z,171.91
2023-05-14T05:43:24.265Z,168.91
2023-05-14T05:44:09.168Z,169.91
2023-05-14T05:44:54.537Z,161.92
2023-05-14T05:45:39.291Z,164.92
2023-05-14T05:46:24.390Z,151.92
2023-05-14T05:47:09.434Z,137.93
2023-05-14T05:47:55.405Z,157.92
2023-05-14T05:48:39.418Z,138.90
2023-05-14T05:49:24.336Z,128.93
2023-05-14T05:50:09.469Z,134.93
2023-05-14T05:50:54.991Z,148.92
2023-05-14T05:51:39.756Z,137.93
2023-05-14T05:52:24.600Z,138.93
2023-05-14T05:53:09.644Z,136.93
2023-05-14T05:53:55.229Z,136.93
2023-05-14T05:54:39.691Z,131.93
2023-05-14T05:55:24.864Z,112.94
2023-05-14T05:56:10.095Z,111.94
2023-05-14T05:56:55.132Z,105.96
2023-05-14T05:57:40.295Z,90.97
2023-05-14T05:58:25.522Z,86.97
2023-05-14T05:59:10.232Z,83.96
2023-05-14T05:59:55.470Z,80.97
2023-05-14T06:00:40.473Z,80.95
2023-05-14T06:01:25.475Z,75.97
2023-05-14T06:02:10.073Z,84.97
2023-05-14T06:02:55.640Z,92.97
2023-05-14T06:03:40.396Z,89.97
2023-05-14T06:04:25.838Z,77.94
2023-05-14T06:05:10.969Z,78.97
2023-05-14T06:05:56.034Z,86.97
2023-05-14T06:06:41.913Z,82.97
2023-05-14T06:07:26.093Z,78.96
2023-05-14T06:08:11.254Z,78.96
2023-05-14T06:08:56.469Z,75.96
2023-05-14T06:09:40.972Z,71.96
2023-05-14T06:10:26.675Z,68.98
2023-05-14T06:11:10.952Z,85.97
2023-05-14T06:11:56.576Z,76.94
2023-05-14T06:12:41.320Z,70.96
2023-05-14T06:13:26.168Z,75.94
2023-05-14T06:14:11.334Z,80.97
2023-05-14T06:14:56.889Z,72.97
2023-05-14T06:15:41.623Z,67.97
2023-05-14T06:16:26.620Z,81.96
2023-05-14T06:17:11.907Z,68.95
2023-05-14T06:17:57.111Z,62.97
2023-05-14T06:18:41.808Z,52.97
2023-05-14T06:19:26.783Z,42.99
2023-05-14T06:20:12.396Z,41.99
2023-05-14T06:20:56.873Z,52.99
2023-05-14T06:21:41.691Z,54.98
2023-05-14T06:22:26.977Z,51.99
2023-05-14T06:23:11.689Z,49.99
2023-05-14T06:23:57.093Z,45.97
2023-05-14T06:24:42.018Z,47.98
2023-05-14T06:25:27.156Z,51.98
2023-05-14T06:26:12.073Z,52.98
2023-05-14T06:26:57.510Z,53.98
2023-05-14T06:27:42.344Z,55.97
2023-05-14T06:28:27.335Z,77.97
2023-05-14T06:29:12.278Z,81.97
2023-05-14T06:29:57.823Z,58.98
2023-05-14T06:30:42.438Z,57.98
2023-05-14T06:31:27.570Z,54.98
2023-05-14T06:32:12.811Z,50.98
2023-05-14T06:32:57.819Z,48.98
2023-05-14T06:33:42.506Z,47.98
2023-05-14T06:34:28.266Z,53.98
2023-05-14T06:35:12.907Z,45.98
2023-05-14T06:35:57.972Z,50.98
2023-05-14T06:36:43.948Z,40.99
2023-05-14T06:37:27.975Z,47.98
2023-05-14T06:38:13.555Z,45.98
2023-05-14T06:38:57.912Z,46.98
2023-05-14T06:39:42.957Z,38.99
2023-05-14T06:40:28.554Z,58.96
2023-05-14T06:41:12.957Z,66.98
2023-05-14T06:41:58.199Z,71.98
2023-05-14T06:42:43.065Z,51.99
2023-05-14T06:43:28.477Z,50.97
2023-05-14T06:44:13.280Z,50.99
2023-05-14T06:44:58.445Z,54.97
2023-05-14T06:45:43.397Z,40.99
2023-05-14T06:46:28.869Z,52.98
2023-05-14T06:47:13.728Z,43.98
2023-05-14T06:47:58.731Z,37.99
2023-05-14T06:48:43.661Z,40.97
2023-05-14T06:49:29.040Z,34.99
2023-05-14T06:50:14.068Z,34.99
2023-05-14T06:50:58.899Z,39.99
2023-05-14T06:51:43.968Z,35.99
2023-05-14T06:52:29.011Z,40.99
2023-05-14T06:53:13.857Z,33.99
2023-05-14T06:53:59.015Z,33.99
2023-05-14T06:54:43.963Z,35.99
2023-05-14T06:55:29.082Z,35.99
2023-05-14T06:56:14.189Z,29.99
2023-05-14T06:56:59.241Z,32.98
2023-05-14T06:57:44.501Z,31.99
2023-05-14T06:58:29.268Z,29.99
2023-05-14T06:59:14.410Z,35.99
2023-05-14T06:59:59.375Z,28.99
2023-05-14T07:00:44.753Z,22.99
2023-05-14T07:01:29.711Z,27.99
2023-05-14T07:02:14.675Z,34.99
2023-05-14T07:02:59.846Z,23.99
2023-05-14T07:03:44.677Z,26.99
2023-05-14T07:04:30.244Z,27.99
2023-05-14T07:05:15.067Z,25.98
2023-05-14T07:05:59.925Z,28.99
2023-05-14T07:06:44.666Z,25.99
2023-05-14T07:07:30.269Z,27.99
2023-05-14T07:08:15.033Z,34.99
2023-05-14T07:09:00.040Z,42.99
2023-05-14T07:09:45.247Z,28.99
2023-05-14T07:10:30.285Z,26.99
2023-05-14T07:11:15.116Z,25.99
2023-05-14T07:12:00.478Z,28.99
2023-05-14T07:12:45.221Z,20.99
2023-05-14T07:13:30.295Z,20.99
2023-05-14T07:14:15.342Z,27.99
2023-05-14T07:15:00.184Z,22.99
2023-05-14T07:15:45.344Z,21.99
2023-05-14T07:16:30.482Z,35.99
2023-05-14T07:17:15.476Z,31.99
2023-05-14T07:18:00.558Z,21.99
2023-05-14T07:18:46.109Z,19.99
2023-05-14T07:19:30.639Z,16.99
2023-05-14T07:20:16.304Z,19.99
2023-05-14T07:21:01.044Z,16.99
2023-05-14T07:21:45.743Z,22.99
2023-05-14T07:22:30.993Z,23.99
2023-05-14T07:23:17.916Z,21.99
2023-05-14T07:24:01.070Z,20.99
2023-05-14T07:24:46.072Z,21.99
2023-05-14T07:25:31.181Z,23.99
2023-05-14T07:26:16.241Z,19.99
2023-05-14T07:27:01.090Z,19.99
2023-05-14T07:27:46.179Z,20.99
2023-05-14T07:28:31.468Z,19.99
2023-05-14T07:29:16.057Z,22.99
2023-05-14T07:30:01.111Z,19.99
2023-05-14T07:30:46.393Z,20.99
2023-05-14T07:31:31.766Z,27.99
2023-05-14T07:32:16.484Z,18.99
2023-05-14T07:33:01.676Z,16.99
2023-05-14T07:33:46.497Z,16.99
2023-05-14T07:34:31.821Z,19.99
2023-05-14T07:35:16.299Z,22.99
2023-05-14T07:36:01.769Z,17.00
2023-05-14T07:36:46.863Z,17.00
2023-05-14T07:37:32.066Z,14.00
2023-05-14T07:38:16.843Z,21.99
2023-05-14T07:39:01.711Z,14.00
2023-05-14T07:39:46.881Z,14.00
2023-05-14T07:40:32.090Z,22.99
2023-05-14T07:41:17.727Z,58.98
2023-05-14T07:42:01.932Z,127.96
2023-05-14T07:42:47.063Z,119.97
2023-05-14T07:43:32.445Z,160.95
2023-05-14T07:44:17.287Z,183.95
2023-05-14T07:45:02.475Z,144.96
2023-05-14T07:45:47.298Z,98.97
2023-05-14T07:46:33.433Z,112.97
2023-05-14T07:47:17.752Z,81.98
2023-05-14T07:48:03.670Z,90.97
2023-05-14T07:48:47.972Z,94.94
2023-05-14T07:49:32.791Z,74.97
2023-05-14T07:50:17.737Z,72.97
2023-05-14T07:51:02.811Z,72.97
2023-05-14T07:51:47.743Z,61.96
2023-05-14T07:52:33.272Z,55.98
2023-05-14T07:53:18.064Z,101.97
2023-05-14T07:54:03.126Z,152.95
2023-05-14T07:54:49.435Z,71.98
2023-05-14T07:55:33.333Z,68.98
2023-05-14T07:56:18.341Z,93.97
2023-05-14T07:57:03.553Z,93.97
2023-05-14T07:57:48.423Z,60.98
2023-05-14T07:58:33.271Z,60.98
2023-05-14T07:59:18.430Z,49.98
2023-05-14T08:00:03.472Z,79.97
2023-05-14T08:00:48.592Z,47.98
2023-05-14T08:01:33.582Z,43.98
2023-05-14T08:02:19.004Z,109.96
2023-05-14T08:03:04.122Z,64.98
2023-05-14T08:03:48.877Z,52.97
2023-05-14T08:04:33.867Z,46.99
2023-05-14T08:05:18.872Z,51.99
2023-05-14T08:06:03.832Z,53.98
2023-05-14T08:06:48.899Z,39.99
2023-05-14T08:07:34.195Z,71.98
2023-05-14T08:08:18.897Z,32.99
2023-05-14T08:09:04.257Z,50.99
2023-05-14T08:09:48.996Z,35.99
2023-05-14T08:10:34.229Z,45.99
2023-05-14T08:11:19.074Z,36.99
2023-05-14T08:12:04.369Z,49.99
2023-05-14T08:12:49.231Z,44.99
2023-05-14T08:13:34.490Z,44.99
2023-05-14T08:14:19.834Z,90.97
2023-05-14T08:15:04.500Z,35.99
2023-05-14T08:15:49.733Z,60.97
2023-05-14T08:16:34.553Z,35.99
2023-05-14T08:17:19.462Z,35.99
2023-05-14T08:18:04.769Z,40.99
2023-05-14T08:18:50.183Z,39.99
2023-05-14T08:19:34.946Z,84.98
2023-05-14T08:20:19.805Z,57.98
2023-05-14T08:21:04.745Z,37.99
2023-05-14T08:21:50.111Z,41.99
2023-05-14T08:22:35.066Z,87.98
2023-05-14T08:23:20.324Z,56.99
2023-05-14T08:24:05.273Z,39.99
2023-05-14T08:24:50.200Z,41.99
2023-05-14T08:25:35.229Z,43.99
2023-05-14T08:26:20.402Z,40.99
2023-05-14T08:27:05.443Z,40.99
2023-05-14T08:27:50.470Z,29.99
2023-05-14T08:28:35.376Z,29.99
2023-05-14T08:29:20.392Z,37.99
2023-05-14T08:30:05.431Z,36.98
2023-05-14T08:30:50.666Z,36.99
2023-05-14T08:31:35.747Z,28.99
2023-05-14T08:32:23.734Z,33.98
2023-05-14T08:33:05.595Z,35.99
2023-05-14T08:33:50.761Z,33.99
2023-05-14T08:34:35.749Z,39.99
2023-05-14T08:35:20.623Z,34.99
2023-05-14T08:36:05.985Z,37.99
2023-05-14T08:36:51.194Z,23.99
2023-05-14T08:37:36.104Z,71.98
2023-05-14T08:38:20.842Z,34.99
2023-05-14T08:39:06.074Z,30.99
2023-05-14T08:39:51.080Z,26.99
2023-05-14T08:40:36.443Z,27.99
2023-05-14T08:41:21.338Z,29.99
2023-05-14T08:42:06.352Z,43.99
2023-05-14T08:42:51.463Z,25.99
2023-05-14T08:43:36.501Z,36.99
2023-05-14T08:44:21.509Z,22.99
2023-05-14T08:45:06.471Z,23.99
2023-05-14T08:45:51.816Z,31.99
2023-05-14T08:46:36.804Z,24.99
2023-05-14T08:47:21.857Z,23.99
2023-05-14T08:48:06.659Z,51.99
2023-05-14T08:48:52.012Z,34.99
2023-05-14T08:49:36.797Z,73.98
2023-05-14T08:50:23.238Z,54.98
2023-05-14T08:51:06.933Z,44.99
2023-05-14T08:51:51.978Z,39.99
2023-05-14T08:52:37.043Z,28.99
2023-05-14T08:53:22.080Z,31.99
2023-05-14T08:54:06.927Z,56.99
2023-05-14T08:54:52.369Z,33.99
2023-05-14T08:55:36.937Z,39.99
2023-05-14T08:56:22.002Z,40.99
2023-05-14T08:57:07.189Z,54.99
2023-05-14T08:57:52.138Z,57.99
2023-05-14T08:58:37.394Z,57.99
2023-05-14T08:59:22.221Z,35.99
2023-05-14T09:00:07.523Z,39.99
2023-05-14T09:00:52.532Z,32.00
2023-05-14T09:01:37.404Z,85.99
2023-05-14T09:02:22.555Z,52.99
2023-05-14T09:03:07.444Z,43.99
2023-05-14T09:03:52.624Z,43.99
2023-05-14T09:04:37.520Z,37.99
2023-05-14T09:05:24.369Z,43.99
2023-05-14T09:06:07.830Z,26.00
2023-05-14T09:06:52.782Z,43.99
2023-05-14T09:07:37.749Z,67.99
2023-05-14T09:08:22.618Z,35.99
2023-05-14T09:09:07.848Z,45.99
2023-05-14T09:09:53.110Z,33.99
2023-05-14T09:10:39.012Z,28.99
2023-05-14T09:11:23.256Z,25.99
2023-05-14T09:12:07.973Z,36.99
2023-05-14T09:12:53.134Z,36.99
2023-05-14T09:13:38.362Z,88.98
2023-05-14T09:14:23.454Z,56.99
2023-05-14T09:15:08.302Z,43.99
2023-05-14T09:15:53.596Z,40.99
2023-05-14T09:16:39.057Z,62.99
2023-05-14T09:17:23.419Z,48.99
2023-05-14T09:18:08.489Z,48.99
2023-05-14T09:18:53.660Z,31.99
2023-05-14T09:19:38.549Z,36.99
2023-05-14T09:20:23.612Z,68.99
2023-05-14T09:21:08.749Z,46.99
2023-05-14T09:21:53.864Z,40.99
2023-05-14T09:22:38.765Z,31.99
2023-05-14T09:23:23.919Z,46.99
2023-05-14T09:24:09.084Z,27.99
2023-05-14T09:24:54.259Z,23.00
2023-05-14T09:25:39.087Z,18.00
2023-05-14T09:26:24.215Z,28.99
2023-05-14T09:27:09.837Z,43.99
2023-05-14T09:27:55.068Z,28.99
2023-05-14T09:28:39.553Z,23.00
2023-05-14T09:29:24.587Z,38.99
2023-05-14T09:30:09.457Z,20.00
2023-05-14T09:30:54.699Z,31.99
2023-05-14T09:31:39.475Z,22.99
2023-05-14T09:32:24.644Z,31.99
2023-05-14T09:33:09.692Z,22.99
2023-05-14T09:33:54.781Z,30.99
2023-05-14T09:34:40.079Z,27.00